Time;durP1;ratioP1;P1;durP2;ratioP2;P2;SDS_P1;SDS_P2;PMS_P1;PMS_P2;Temp;Humidity;BMP_temperature;BMP_pressure;BME280_temperature;BME280_humidity;BME280_pressure;Samples;Min_cycle;Max_cycle;Signal;HPM_P1;HPM_P2
2022/08/24 00:02:19;;;;;;;5.12;2.75;;;25.20;80.00;;;;;;7579414;78;26748;-59
2022/08/24 00:12:22;;;;;;;9.03;2.77;;;25.10;79.80;;;;;;7581036;78;26297;-59
2022/08/24 00:22:24;;;;;;;4.15;2.50;;;25.10;79.90;;;;;;7585791;78;26301;-60
2022/08/24 00:32:28;;;;;;;8.38;2.62;;;25.10;80.10;;;;;;7581200;78;26292;-60
2022/08/24 00:42:31;;;;;;;6.12;2.40;;;25.10;80.00;;;;;;7565866;78;26263;-59
2022/08/24 00:52:37;;;;;;;4.25;2.70;;;25.10;80.10;;;;;;7577607;77;26362;-60
2022/08/24 01:02:42;;;;;;;6.30;2.55;;;25.00;80.10;;;;;;7474350;78;26284;-60
2022/08/24 01:12:48;;;;;;;5.37;2.67;;;25.00;80.30;;;;;;7474762;78;26288;-59
2022/08/24 01:23:08;;;;;;;3.95;2.83;;;25.00;80.40;;;;;;7514367;76;26276;-61
2022/08/24 01:33:13;;;;;;;5.15;3.00;;;24.90;80.10;;;;;;7494643;78;26276;-62
2022/08/24 01:43:15;;;;;;;4.22;2.55;;;24.90;80.30;;;;;;7492851;78;26789;-61
2022/08/24 01:53:19;;;;;;;7.30;2.65;;;24.90;80.60;;;;;;7519371;76;26385;-61
2022/08/24 02:03:23;;;;;;;5.55;2.70;;;24.80;80.70;;;;;;7494773;78;26275;-61
2022/08/24 02:13:27;;;;;;;4.72;2.37;;;24.80;80.50;;;;;;7494358;78;26453;-60
2022/08/24 02:23:29;;;;;;;4.35;2.90;;;24.70;80.30;;;;;;7541551;76;26305;-60
2022/08/24 02:33:37;;;;;;;3.65;2.70;;;24.70;81.00;;;;;;7609481;76;26266;-61
2022/08/24 02:43:40;;;;;;;6.53;2.47;;;24.70;81.00;;;;;;7612102;76;26234;-61
2022/08/24 02:53:42;;;;;;;7.40;2.60;;;24.60;80.30;;;;;;7561154;76;26837;-60
2022/08/24 03:03:45;;;;;;;5.20;2.77;;;24.60;81.20;;;;;;7604482;76;26261;-59
2022/08/24 03:13:48;;;;;;;6.95;2.65;;;24.50;81.30;;;;;;7587158;78;26280;-61
2022/08/24 03:23:51;;;;;;;4.22;2.50;;;24.50;81.30;;;;;;7583069;78;26381;-60
2022/08/24 03:33:53;;;;;;;6.78;2.72;;;24.50;81.20;;;;;;7575786;78;26322;-61
2022/08/24 03:43:56;;;;;;;7.45;3.02;;;24.50;81.00;;;;;;7568177;78;26301;-60
2022/08/24 03:53:59;;;;;;;4.58;2.50;;;24.40;81.40;;;;;;7582386;78;26692;-60
2022/08/24 04:04:02;;;;;;;5.15;2.50;;;24.40;81.10;;;;;;7564741;78;26202;-60
2022/08/24 04:14:07;;;;;;;5.87;2.83;;;24.30;81.30;;;;;;7602715;78;26654;-61
2022/08/24 04:24:10;;;;;;;6.33;2.80;;;24.30;81.40;;;;;;7555418;76;26409;-60
2022/08/24 04:34:14;;;;;;;3.58;2.30;;;24.20;81.30;;;;;;7500854;78;26801;-61
2022/08/24 04:44:17;;;;;;;4.95;2.33;;;24.20;81.20;;;;;;7554096;78;26364;-60
2022/08/24 04:54:20;;;;;;;4.30;2.30;;;24.20;81.40;;;;;;7559426;76;26291;-61
2022/08/24 05:04:23;;;;;;;4.70;2.72;;;24.20;81.40;;;;;;7546217;78;26711;-60
2022/08/24 05:14:26;;;;;;;6.20;2.52;;;24.20;81.50;;;;;;7528329;78;26352;-61
2022/08/24 05:24:29;;;;;;;6.53;3.50;;;24.20;81.40;;;;;;7512388;76;26280;-61
2022/08/24 05:34:31;;;;;;;7.58;2.80;;;24.20;81.40;;;;;;7500948;78;26758;-61
2022/08/24 05:44:34;;;;;;;4.20;2.62;;;24.20;81.60;;;;;;7500857;78;26307;-61
2022/08/24 05:54:37;;;;;;;7.20;2.37;;;24.20;81.70;;;;;;7512910;76;26791;-60
2022/08/24 06:04:39;;;;;;;5.87;2.58;;;24.20;81.80;;;;;;7539239;78;26339;-60
2022/08/24 06:14:47;;;;;;;9.35;2.67;;;24.20;81.60;;;;;;7617966;78;26324;-60
2022/08/24 06:35:10;;;;;;;4.03;2.40;;;24.20;81.80;;;;;;7617068;78;26689;-60
2022/08/24 06:45:13;;;;;;;6.90;2.70;;;24.40;81.10;;;;;;7574010;78;26271;-59
2022/08/24 06:55:15;;;;;;;7.00;2.50;;;24.30;81.20;;;;;;7555879;77;26355;-60
2022/08/24 07:05:18;;;;;;;5.30;2.50;;;24.40;82.50;;;;;;7615165;78;26328;-60
2022/08/24 07:15:20;;;;;;;12.95;3.42;;;24.40;83.40;;;;;;7532891;78;26366;-61
2022/08/24 07:25:23;;;;;;;7.15;2.72;;;24.50;82.60;;;;;;7577808;76;26988;-60
2022/08/24 07:35:28;;;;;;;8.55;2.55;;;24.50;82.90;;;;;;7595556;76;26385;-60
2022/08/24 07:45:32;;;;;;;5.90;2.20;;;24.60;83.00;;;;;;7609317;76;26264;-61
2022/08/24 07:55:34;;;;;;;6.28;2.22;;;24.60;83.10;;;;;;7607235;76;26771;-60
2022/08/24 08:05:39;;;;;;;3.62;1.85;;;24.70;83.20;;;;;;7560418;78;26324;-60
2022/08/24 08:15:42;;;;;;;7.60;2.75;;;24.80;83.20;;;;;;7580692;78;26367;-60
2022/08/24 08:25:53;;;;;;;3.98;2.05;;;24.80;83.50;;;;;;7571912;78;26360;-60
2022/08/24 08:36:08;;;;;;;5.35;2.25;;;24.90;82.40;;;;;;7581723;78;27129;-60
2022/08/24 08:46:13;;;;;;;4.53;1.90;;;24.90;83.10;;;;;;7556272;78;26362;-59
2022/08/24 08:56:43;;;;;;;7.53;2.55;;;25.00;83.90;;;;;;7529453;77;27069;-61
2022/08/24 09:06:57;;;;;;;12.10;2.42;;;25.10;82.90;;;;;;7518221;78;26881;-60
2022/08/24 09:17:02;;;;;;;8.30;1.80;;;25.20;82.90;;;;;;7496112;78;26287;-61
2022/08/24 09:27:14;;;;;;;5.25;2.42;;;25.30;82.40;;;;;;7516467;77;26266;-60
2022/08/24 09:37:53;;;;;;;7.42;2.35;;;25.40;82.10;;;;;;7516494;78;26849;-60
2022/08/24 09:48:10;;;;;;;4.40;2.00;;;25.60;81.60;;;;;;7581847;78;26283;-61
2022/08/24 09:58:16;;;;;;;9.43;2.73;;;25.40;81.80;;;;;;7483059;77;28762;-60
2022/08/24 10:08:38;;;;;;;12.45;2.50;;;25.40;82.50;;;;;;7610910;78;26257;-61
2022/08/24 10:18:43;;;;;;;17.07;2.92;;;25.40;82.60;;;;;;7572726;78;26834;-61
2022/08/24 10:29:03;;;;;;;6.65;2.70;;;25.50;82.70;;;;;;7561828;78;26343;-62
2022/08/24 10:49:50;;;;;;;7.30;2.00;;;25.60;81.00;;;;;;7562130;77;26369;-60
2022/08/24 11:00:16;;;;;;;3.72;2.00;;;25.60;79.20;;;;;;7570180;78;26367;-60
2022/08/24 11:10:18;;;;;;;8.58;3.20;;;25.70;78.10;;;;;;7578750;78;26324;-60
2022/08/24 11:20:32;;;;;;;15.48;3.42;;;25.80;78.40;;;;;;7551900;77;26277;-60
2022/08/24 11:30:40;;;;;;;14.28;2.87;;;25.80;78.10;;;;;;7581397;78;26251;-60
2022/08/24 11:40:48;;;;;;;7.97;2.30;;;25.90;78.40;;;;;;7556948;78;26303;-61
2022/08/24 11:51:24;;;;;;;4.83;1.95;;;25.90;79.10;;;;;;7557256;78;26282;-60
2022/08/24 12:01:36;;;;;;;4.95;2.52;;;25.90;79.10;;;;;;7576481;78;26325;-60
2022/08/24 12:11:50;;;;;;;2.85;2.22;;;26.00;79.00;;;;;;7573688;78;26272;-60
2022/08/24 12:21:56;;;;;;;5.55;2.42;;;26.00;79.20;;;;;;7565167;78;26344;-60
2022/08/24 12:32:16;;;;;;;13.72;3.15;;;26.10;78.60;;;;;;7517678;78;26300;-62
2022/08/24 12:42:31;;;;;;;5.22;2.27;;;26.10;78.40;;;;;;7531223;78;26250;-60
2022/08/24 12:52:51;;;;;;;4.50;2.10;;;26.10;78.40;;;;;;7576137;77;26312;-59
2022/08/24 13:03:03;;;;;;;2.92;1.82;;;26.20;77.80;;;;;;7581073;78;26306;-60
2022/08/24 13:13:09;;;;;;;5.40;2.10;;;26.20;77.20;;;;;;7572644;78;26356;-59
2022/08/24 13:23:17;;;;;;;3.50;1.80;;;26.20;77.30;;;;;;7571704;77;27046;-60
2022/08/24 13:33:29;;;;;;;5.80;2.30;;;26.30;77.00;;;;;;7504992;78;28231;-59
2022/08/24 13:43:38;;;;;;;2.45;1.90;;;26.80;73.00;;;;;;7557287;78;26267;-61
2022/08/24 13:54:04;;;;;;;7.50;2.00;;;26.70;74.40;;;;;;7552169;78;26840;-60
2022/08/24 14:04:13;;;;;;;7.62;1.98;;;27.00;72.40;;;;;;7566044;78;26345;-61
2022/08/24 14:14:35;;;;;;;3.37;2.02;;;26.90;73.20;;;;;;7569501;78;26352;-61
2022/08/24 14:24:49;;;;;;;3.67;1.98;;;26.80;73.30;;;;;;7538488;77;26295;-61
2022/08/24 14:35:03;;;;;;;5.85;2.27;;;27.30;69.60;;;;;;7578645;78;26396;-62
2022/08/24 14:45:12;;;;;;;3.95;1.80;;;27.10;70.10;;;;;;7569843;78;26759;-61
2022/08/24 14:55:35;;;;;;;6.97;1.95;;;27.20;70.10;;;;;;7584068;77;26333;-60
2022/08/24 15:05:48;;;;;;;8.70;1.85;;;27.20;69.00;;;;;;7585607;78;26278;-59
2022/08/24 15:15:59;;;;;;;3.42;1.67;;;27.20;70.30;;;;;;7620540;77;26809;-56
2022/08/24 15:26:08;;;;;;;3.25;1.77;;;27.40;67.40;;;;;;7593264;77;26866;-58
2022/08/24 15:36:13;;;;;;;5.30;2.10;;;27.30;68.70;;;;;;7570699;77;26858;-59
2022/08/24 15:46:21;;;;;;;6.05;1.90;;;27.20;69.40;;;;;;7568854;77;26262;-59
2022/08/24 15:56:28;;;;;;;3.35;2.10;;;27.50;67.20;;;;;;7560188;77;26771;-60
2022/08/24 16:06:37;;;;;;;4.72;2.10;;;27.30;69.60;;;;;;7563441;78;26260;-61
2022/08/24 16:16:43;;;;;;;4.30;2.02;;;27.40;69.20;;;;;;7538540;78;26290;-59
2022/08/24 16:26:49;;;;;;;4.97;1.57;;;27.30;71.20;;;;;;7581783;77;26302;-59
2022/08/24 16:36:52;;;;;;;8.08;1.82;;;27.30;71.70;;;;;;7595464;78;26842;-59
2022/08/24 16:46:54;;;;;;;5.75;1.95;;;27.30;70.90;;;;;;7586218;78;26364;-59
2022/08/24 16:57:02;;;;;;;9.73;2.40;;;27.40;70.60;;;;;;7603321;78;26257;-57
2022/08/24 17:07:07;;;;;;;9.40;1.98;;;27.60;69.30;;;;;;7605012;78;26799;-59
2022/08/24 17:17:13;;;;;;;8.00;2.05;;;27.40;71.20;;;;;;7559477;78;26362;-58
2022/08/24 17:27:17;;;;;;;4.22;1.70;;;27.40;71.30;;;;;;7544751;78;26363;-61
2022/08/24 17:37:19;;;;;;;11.22;2.15;;;27.50;71.20;;;;;;7506460;79;26260;-60
2022/08/24 17:47:22;;;;;;;4.75;2.15;;;27.70;70.00;;;;;;7481661;79;26323;-59
2022/08/24 17:57:26;;;;;;;4.30;2.12;;;27.60;70.90;;;;;;7494368;79;26755;-59
2022/08/24 18:07:29;;;;;;;7.08;2.42;;;27.50;70.90;;;;;;7520263;79;26261;-59
2022/08/24 18:17:38;;;;;;;7.17;2.52;;;27.50;71.00;;;;;;7528910;79;26379;-60
2022/08/24 18:27:42;;;;;;;7.80;1.65;;;27.40;71.90;;;;;;7532400;78;26334;-61
2022/08/24 18:37:44;;;;;;;18.05;2.62;;;27.30;72.30;;;;;;7487968;79;26317;-60
2022/08/24 18:47:47;;;;;;;3.92;2.92;;;27.30;72.70;;;;;;7515551;78;26303;-60
2022/08/24 18:57:50;;;;;;;3.42;1.98;;;27.20;73.10;;;;;;7515576;78;26353;-60
2022/08/24 19:07:53;;;;;;;5.22;1.72;;;27.20;74.30;;;;;;7504512;79;26872;-60
2022/08/24 19:17:56;;;;;;;4.15;1.80;;;27.10;74.60;;;;;;7488010;79;26757;-60
2022/08/24 19:27:59;;;;;;;5.00;2.37;;;27.10;75.10;;;;;;7407005;79;26816;-59
2022/08/24 19:38:01;;;;;;;17.30;3.62;;;27.10;75.10;;;;;;7396306;80;26215;-59
2022/08/24 19:48:04;;;;;;;18.23;3.40;;;27.00;76.80;;;;;;7420469;80;26234;-59
2022/08/24 19:58:10;;;;;;;18.42;3.17;;;26.90;80.00;;;;;;7420907;79;26317;-61
2022/08/24 20:08:13;;;;;;;17.75;3.80;;;26.80;79.80;;;;;;7414522;80;26315;-62
2022/08/24 20:18:16;;;;;;;17.00;3.33;;;26.80;80.10;;;;;;7430130;80;26282;-60
2022/08/24 20:28:19;;;;;;;15.90;3.55;;;26.70;79.90;;;;;;7590266;77;26294;-60
2022/08/24 20:38:22;;;;;;;7.03;2.45;;;26.70;80.00;;;;;;7604424;78;26228;-61
2022/08/24 20:48:28;;;;;;;4.00;2.30;;;26.70;80.30;;;;;;7588070;78;26822;-60
2022/08/24 20:58:30;;;;;;;5.17;1.90;;;26.60;80.00;;;;;;7584989;77;27327;-60
2022/08/24 21:08:34;;;;;;;9.13;2.08;;;26.50;77.70;;;;;;7593189;78;26252;-61
2022/08/24 21:18:37;;;;;;;5.80;2.17;;;26.50;79.60;;;;;;7609664;78;27151;-59
2022/08/24 21:28:42;;;;;;;4.58;1.90;;;26.40;79.70;;;;;;7609491;76;26302;-60
2022/08/24 21:38:44;;;;;;;3.20;1.90;;;26.40;79.80;;;;;;7584013;78;26298;-60
2022/08/24 21:48:47;;;;;;;3.12;1.82;;;26.30;79.90;;;;;;7599545;78;26368;-64
2022/08/24 21:58:49;;;;;;;3.77;2.02;;;26.30;79.90;;;;;;7591532;78;26969;-60
2022/08/24 22:08:52;;;;;;;4.62;1.45;;;26.20;79.90;;;;;;7600244;78;26355;-60
2022/08/24 22:18:55;;;;;;;4.40;1.85;;;26.20;79.90;;;;;;7610361;78;26305;-60
2022/08/24 22:28:57;;;;;;;2.50;1.90;;;26.20;80.00;;;;;;7595814;78;26802;-60
2022/08/24 22:39:00;;;;;;;3.22;1.80;;;26.10;80.10;;;;;;7592888;78;26281;-58
2022/08/24 22:49:03;;;;;;;2.67;1.95;;;26.20;80.10;;;;;;7593952;78;26287;-58
2022/08/24 22:59:07;;;;;;;3.80;1.72;;;26.10;79.50;;;;;;7592825;77;26391;-60
2022/08/24 23:09:10;;;;;;;3.60;1.85;;;26.00;80.30;;;;;;7593858;77;26270;-61
2022/08/24 23:29:35;;;;;;;3.12;1.72;;;25.90;80.80;;;;;;7592376;76;26344;-60
2022/08/24 23:39:37;;;;;;;2.00;1.80;;;25.90;80.60;;;;;;7566782;78;26854;-60
2022/08/24 23:49:40;;;;;;;2.58;1.62;;;25.80;80.70;;;;;;7561638;78;26349;-57
2022/08/24 23:59:43;;;;;;;4.08;1.87;;;25.80;80.90;;;;;;7559269;78;26346;-60
